Latest Weather Observations for Mount Lofty

IDS60801

Issued at 4:31 pm CDT Monday 22 December 2014 (issued every 30 minutes, with the page automatically refreshed every 10 minutes)

About weather observations | Map of weather stations | Latest weather observations for SA | Other Formats
Station Details ID: 023842 Name: MOUNT LOFTY Lat: -34.98 Lon: 138.71 Height: 685.0 m
Data from the previous 72 hours. | See also: Recent months at Mount Lofty
Date/Time
CDT
Temp
°C
App
Temp
°C
Dew
Point
Rel
Hum
%
Delta-T
°C
Wind Press
QNH
hPa
Press
MSL
hPa
Rain
since 9 am
mm
Dir
 
Spd
km/h
Gust
km/h
Spd
kts
Gust
kts
22/04:30pm 18.5 18.8 14.4 77 2.4 WNW 6 11 3 6 - - 0.2
22/04:00pm 19.6 19.2 13.1 66 3.8 WNW 7 13 4 7 - - 0.0
22/03:30pm 19.5 20.3 13.7 69 3.4 SSW 2 4 1 2 - - 0.0
22/03:00pm 20.1 20.5 13.8 67 3.7 E 4 7 2 4 - - 0.0
22/02:30pm 19.6 20.1 12.8 65 4.0 SW 2 4 1 2 - - 0.0
22/02:00pm 19.0 18.8 13.0 68 3.5 WNW 6 11 3 6 - - 0.0
22/01:30pm 19.2 18.6 13.4 69 3.4 WNW 9 15 5 8 - - 0.0
22/01:00pm 19.0 19.1 14.5 75 2.7 WNW 7 15 4 8 - - 0.0
22/12:30pm 20.6 19.2 11.0 54 5.4 WNW 9 19 5 10 - - 0.0
22/12:00pm 20.4 19.5 10.5 53 5.6 W 6 13 3 7 - - 0.0
22/11:30am 21.0 18.2 8.6 45 6.7 W 13 20 7 11 - - 0.0
22/11:00am 20.6 18.5 9.8 50 6.0 WNW 11 19 6 10 - - 0.0
22/10:30am 20.2 19.4 11.7 58 4.9 WNW 7 15 4 8 - - 0.0
22/10:00am 21.6 20.5 10.7 50 6.2 NW 7 15 4 8 - - 0.0
22/09:30am 20.3 18.8 11.8 58 4.9 NW 11 39 6 21 - - 0.0
22/09:26am 20.0 17.6 11.5 58 4.8 NW 15 39 8 21 - - 0.0
22/09:00am 25.1 22.7 5.3 28 10.4 N 7 15 4 8 - - 0.0
22/08:30am 24.2 21.4 5.1 29 9.9 NNE 9 15 5 8 - - 0.0
22/08:00am 23.5 21.4 5.9 32 9.2 ENE 6 13 3 7 - - 0.0
22/07:30am 22.9 20.8 5.8 33 8.9 ENE 6 11 3 6 - - 0.0
22/07:00am 22.0 20.1 6.7 37 8.1 ENE 6 9 3 5 - - 0.0
22/06:30am 22.0 20.1 6.7 37 8.1 ENE 6 11 3 6 - - 0.0
22/06:00am 21.8 19.9 6.5 37 8.0 E 6 11 3 6 - - 0.0
22/05:30am 21.4 19.6 7.3 40 7.5 E 6 9 3 5 - - 0.0
22/05:00am 21.3 19.4 6.8 39 7.6 E 6 9 3 5 - - 0.0
22/04:30am 19.4 17.9 8.4 49 5.9 ESE 6 9 3 5 - - 0.0
22/04:00am 19.4 17.4 7.2 45 6.4 ESE 7 13 4 7 - - 0.0
22/03:30am 20.3 18.0 5.9 39 7.4 ESE 7 11 4 6 - - 0.0
22/03:00am 20.7 18.4 5.9 38 7.6 ENE 7 15 4 8 - - 0.0
22/02:30am 20.1 18.5 6.5 41 7.1 SE 4 9 2 5 - - 0.0
22/02:00am 18.2 16.7 9.0 55 5.0 ESE 7 17 4 9 - - 0.0
22/01:30am 18.8 17.2 8.7 52 5.4 ESE 7 19 4 10 - - 0.0
22/01:00am 18.5 16.1 8.7 53 5.3 ESE 11 19 6 10 - - 0.0
22/12:30am 19.8 17.7 6.5 42 6.9 ESE 7 15 4 8 - - 0.0
22/12:00am 21.1 18.9 5.5 36 8.0 ESE 6 11 3 6 - - 0.0
 
Date/Time
CDT
Temp
°C
App
Temp
°C
Dew
Point
Rel
Hum
%
Delta-T
°C
Wind Press
QNH
hPa
Press
MSL
hPa
Rain
since 9 am
mm
Dir
 
Spd
km/h
Gust
km/h
Spd
kts
Gust
kts
21/11:30pm 20.8 18.1 5.6 37 7.8 ESE 9 11 5 6 - - 0.0
21/11:00pm 22.0 20.8 4.6 32 8.8 CALM 0 2 0 1 - - 0.0
21/10:30pm 22.2 20.4 5.6 34 8.6 ENE 4 9 2 5 - - 0.0
21/10:00pm 21.6 19.3 5.5 35 8.3 E 7 13 4 7 - - 0.0
21/09:30pm 19.7 17.2 6.4 42 6.9 E 9 19 5 10 - - 0.0
21/09:00pm 19.0 16.1 8.1 49 5.8 ESE 13 19 7 10 - - 0.0
21/08:30pm 19.3 17.6 9.8 54 5.2 ESE 9 17 5 9 - - 0.0
21/08:00pm 19.9 18.7 11.7 59 4.7 ESE 9 19 5 10 - - 0.0
21/07:30pm 20.7 18.8 11.9 57 5.1 ESE 13 17 7 9 - - 0.0
21/07:00pm 22.2 20.7 11.9 52 6.0 ESE 11 17 6 9 - - 0.0
21/06:30pm 24.0 23.1 12.6 49 6.7 ESE 9 17 5 9 - - 0.0
21/06:00pm 25.6 25.0 12.4 43 7.8 ESE 7 15 4 8 - - 0.0
21/05:30pm 28.7 28.1 10.4 32 10.7 SSE 4 9 2 5 - - 0.0
21/05:00pm 29.4 26.8 3.4 19 13.5 WSW 6 9 3 5 - - 0.0
21/04:30pm 29.0 26.2 2.3 18 13.6 W 6 19 3 10 - - 0.0
21/04:00pm 28.5 25.5 1.1 17 13.6 W 6 11 3 6 - - 0.0
21/03:30pm 30.4 26.8 0.9 15 14.8 WNW 9 20 5 11 - - 0.0
21/03:00pm 28.6 24.3 1.2 17 13.7 W 13 28 7 15 - - 0.0
21/02:30pm 29.6 26.0 2.8 18 13.8 W 11 20 6 11 - - 0.0
21/02:00pm 28.2 25.0 3.1 20 12.9 WNW 9 20 5 11 - - 0.0
21/01:30pm 28.2 24.8 3.8 21 12.7 W 11 26 6 14 - - 0.0
21/01:00pm 29.3 25.5 4.0 20 13.3 WNW 13 24 7 13 - - 0.0
21/12:30pm 28.7 24.8 3.5 20 13.1 WNW 13 24 7 13 - - 0.0
21/12:00pm 28.7 24.4 3.5 20 13.1 NW 15 33 8 18 - - 0.0
21/11:30am 28.3 24.0 3.2 20 12.9 NW 15 28 8 15 - - 0.0
21/11:00am 28.3 24.1 3.9 21 12.7 NNW 15 28 8 15 - - 0.0
21/10:30am 27.3 23.2 4.4 23 12.0 NW 15 24 8 13 - - 0.0
21/10:00am 26.3 22.0 3.5 23 11.7 NNW 15 24 8 13 - - 0.0
21/09:30am 25.4 21.6 4.0 25 11.0 NNW 13 26 7 14 - - 0.0
21/09:00am 24.8 21.4 4.0 26 10.6 N 11 20 6 11 - - 0.0
21/08:30am 23.9 20.1 3.8 27 10.2 N 13 22 7 12 - - 0.0
21/08:00am 23.1 19.6 3.6 28 9.8 N 11 28 6 15 - - 0.0
21/07:30am 22.3 18.5 3.9 30 9.2 N 13 24 7 13 - - 0.0
21/07:00am 21.9 18.9 4.0 31 9.0 N 9 20 5 11 - - 0.0
21/06:30am 21.6 17.4 3.8 31 8.9 NNE 15 30 8 16 - - 0.0
21/06:00am 21.7 18.0 4.3 32 8.8 NNE 13 26 7 14 - - 0.0
21/05:30am 21.5 17.4 4.1 32 8.7 NNE 15 28 8 15 - - 0.0
21/05:00am 21.4 18.1 4.5 33 8.5 NE 11 24 6 13 - - 0.0
21/04:30am 21.0 17.9 5.4 36 8.0 NE 11 28 6 15 - - 0.0
21/04:00am 20.2 17.5 5.8 39 7.4 NE 9 24 5 13 - - 0.0
21/03:30am 18.9 16.4 6.7 45 6.3 E 9 17 5 9 - - 0.0
21/03:00am 18.7 16.7 7.2 47 6.0 E 7 19 4 10 - - 0.0
21/02:30am 18.5 16.8 7.6 49 5.7 E 6 15 3 8 - - 0.0
21/02:00am 16.9 15.4 8.3 57 4.5 ESE 6 11 3 6 - - 0.0
21/01:30am 15.5 13.9 8.7 64 3.6 ESE 7 13 4 7 - - 0.0
21/01:00am 14.8 13.3 9.0 68 3.1 ESE 7 13 4 7 - - 0.0
21/12:30am 15.3 13.4 9.2 67 3.2 ESE 9 17 5 9 - - 0.0
21/12:00am 14.7 12.4 7.5 62 3.7 ESE 9 13 5 7 - - 0.0
 
Date/Time
CDT
Temp
°C
App
Temp
°C
Dew
Point
Rel
Hum
%
Delta-T
°C
Wind Press
QNH
hPa
Press
MSL
hPa
Rain
since 9 am
mm
Dir
 
Spd
km/h
Gust
km/h
Spd
kts
Gust
kts
20/11:30pm 15.0 12.6 8.5 65 3.4 ESE 11 17 6 9 - - 0.0
20/11:00pm 15.9 13.6 8.9 63 3.7 ESE 11 20 6 11 - - 0.0
20/10:30pm 16.1 14.6 9.1 63 3.7 ESE 7 13 4 7 - - 0.0
20/10:00pm 15.8 14.4 9.5 66 3.4 ESE 7 13 4 7 - - 0.0
20/09:30pm 15.7 14.4 10.0 69 3.1 ESE 7 11 4 6 - - 0.0
20/09:00pm 16.3 14.8 10.4 68 3.2 ESE 9 13 5 7 - - 0.0
20/08:30pm 17.2 15.6 10.3 64 3.8 ESE 9 15 5 8 - - 0.0
20/08:00pm 18.3 16.4 10.4 60 4.4 ESE 11 17 6 9 - - 0.0
20/07:30pm 19.8 17.8 10.0 53 5.4 ESE 11 19 6 10 - - 0.0
20/07:00pm 21.6 20.8 9.5 46 6.7 E 4 11 2 6 - - 0.0
20/06:30pm 22.8 21.8 8.9 41 7.7 E 4 7 2 4 - - 0.0
20/06:00pm 24.0 22.7 7.6 35 8.9 W 4 7 2 4 - - 0.0
20/05:30pm 24.7 23.0 8.2 35 9.1 WSW 7 15 4 8 - - 0.0
20/05:00pm 24.5 22.5 7.2 33 9.4 W 7 15 4 8 - - 0.0
20/04:30pm 24.9 22.7 8.0 34 9.3 NW 9 19 5 10 - - 0.0
20/04:00pm 24.7 23.2 9.0 37 8.8 NW 7 11 4 6 - - 0.0
20/03:30pm 24.0 22.8 9.6 40 8.1 WSW 6 11 3 6 - - 0.0
20/03:00pm 24.4 23.3 9.9 40 8.2 WSW 6 11 3 6 - - 0.0
20/02:30pm 23.6 22.2 9.6 41 7.9 W 7 17 4 9 - - 0.0
20/02:00pm 22.7 21.2 9.1 42 7.5 NNW 7 13 4 7 - - 0.0
20/01:30pm 22.3 20.8 9.1 43 7.3 NNW 7 13 4 7 - - 0.0
20/01:00pm 21.4 19.1 7.3 40 7.5 NW 9 15 5 8 - - 0.0
20/12:30pm 21.3 19.8 8.6 44 6.9 NNW 6 13 3 7 - - 0.0
20/12:00pm 20.7 19.1 8.7 46 6.5 NNW 7 13 4 7 - - 0.0
20/11:30am 19.8 18.3 8.5 48 6.1 NW 6 11 3 6 - - 0.0
20/11:00am 18.6 16.9 8.3 51 5.5 WNW 7 11 4 6 - - 0.0
20/10:30am 17.6 16.2 8.7 56 4.8 NW 6 9 3 5 - - 0.0
20/10:00am 16.7 15.4 9.1 61 4.1 N 6 11 3 6 - - 0.0
20/09:30am 15.4 14.5 9.3 67 3.3 N 4 6 2 3 - - 0.0
20/09:00am 14.2 13.1 8.4 68 3.0 E 4 11 2 6 - - 0.0
20/08:30am 13.2 11.4 9.5 78 2.0 E 9 15 5 8 - - 0.0
20/08:00am 12.2 10.8 9.4 83 1.5 E 7 15 4 8 - - 0.0
20/07:30am 10.7 9.2 9.1 90 0.8 E 7 13 4 7 - - 0.0
20/07:00am 9.5 7.9 8.9 96 0.3 E 7 13 4 7 - - 0.0
20/06:30am 9.2 7.7 8.6 96 0.3 E 6 9 3 5 - - 0.0
20/06:00am 8.8 7.2 8.2 96 0.3 E 6 9 3 5 - - 0.0
20/05:30am 8.7 7.1 7.9 95 0.4 E 6 9 3 5 - - 0.0
20/05:00am 8.8 7.1 8.2 96 0.3 E 7 13 4 7 - - 0.0
20/04:30am 8.8 6.6 8.0 95 0.4 E 9 11 5 6 - - 0.0
20/04:00am 8.9 6.8 8.1 95 0.4 ESE 9 15 5 8 - - 0.0
20/03:30am 8.9 6.7 8.0 94 0.4 E 9 13 5 7 - - 0.0
20/03:00am 9.2 6.3 8.3 94 0.5 ESE 13 19 7 10 - - 0.0
20/02:30am 8.9 6.0 8.0 94 0.4 ESE 13 19 7 10 - - 0.0
20/02:00am 9.0 6.1 8.1 94 0.4 ESE 13 20 7 11 - - 0.0
20/01:30am 9.0 6.4 7.9 93 0.5 ESE 11 19 6 10 - - 0.0
20/01:00am 9.0 6.4 7.9 93 0.5 ESE 11 17 6 9 - - 0.0
20/12:30am 9.1 6.1 7.9 92 0.6 ESE 13 17 7 9 - - 0.0
20/12:00am 9.2 6.3 8.0 92 0.6 ESE 13 17 7 9 - - 0.0
 
Date/Time
CDT
Temp
°C
App
Temp
°C
Dew
Point
Rel
Hum
%
Delta-T
°C
Wind Press
QNH
hPa
Press
MSL
hPa
Rain
since 9 am
mm
Dir
 
Spd
km/h
Gust
km/h
Spd
kts
Gust
kts
19/11:30pm 9.3 6.3 7.9 91 0.7 ESE 13 20 7 11 - - 0.0
19/11:00pm 9.5 6.5 7.9 90 0.8 ESE 13 20 7 11 - - 0.0
19/10:30pm 9.7 6.7 7.8 88 0.9 ESE 13 20 7 11 - - 0.0
19/10:00pm 9.9 6.5 7.8 87 1.0 ESE 15 20 8 11 - - 0.0
19/09:30pm 10.2 7.2 7.8 85 1.2 ESE 13 20 7 11 - - 0.0
19/09:00pm 10.9 8.0 8.0 82 1.5 ESE 13 22 7 12 - - 0.0
19/08:30pm 11.6 9.3 7.5 76 2.1 ESE 9 19 5 10 - - 0.0
19/08:00pm 12.9 11.0 7.6 70 2.7 SE 7 11 4 6 - - 0.0
19/07:30pm 14.3 12.8 8.3 67 3.1 SE 6 13 3 7 - - 0.0
19/07:00pm 15.9 14.6 9.1 64 3.6 S 6 13 3 7 - - 0.0
19/06:30pm 16.3 14.9 9.0 62 3.9 SSW 6 11 3 6 - - 0.0
19/06:00pm 17.3 15.6 8.4 56 4.7 S 7 24 4 13 - - 0.0
19/05:30pm 17.7 15.9 8.0 53 5.1 S 7 17 4 9 - - 0.0
19/05:00pm 18.4 16.6 8.1 51 5.5 SW 7 17 4 9 - - 0.0

Other Formats:

Comma delimited format used in spreadsheet applications
http://www.bom.gov.au/fwo/IDS60801/IDS60801.95678.axf

JavaScript Object Notation format (JSON) in row-major order
http://www.bom.gov.au/fwo/IDS60801/IDS60801.95678.json